Time;durP1;ratioP1;P1;durP2;ratioP2;P2;SDS_P1;SDS_P2;PMS_P1;PMS_P2;Temp;Humidity;BMP_temperature;BMP_pressure;BME280_temperature;BME280_humidity;BME280_pressure;Samples;Min_cycle;Max_cycle;Signal;HPM_P1;HPM_P2
2022/11/06 00:01:45;;;;;;;;;;;;;;;11.42;83.54;100436.66;5309169;32;34480;-78
2022/11/06 00:04:47;;;;;;;;;;;;;;;11.30;83.83;100438.03;5334958;32;35390;-78
2022/11/06 00:07:49;;;;;;;;;;;;;;;11.74;81.50;100445.84;5321471;32;34806;-77
2022/11/06 00:10:51;;;;;;;;;;;;;;;11.21;85.41;100441.06;5328755;32;35037;-78
2022/11/06 00:13:53;;;;;;;;;;;;;;;11.13;83.87;100443.09;5311410;32;35170;-68
2022/11/06 00:16:54;;;;;;;;;;;;;;;10.79;87.05;100443.59;5279266;32;35478;-77
2022/11/06 00:19:56;;;;;;;;;;;;;;;10.91;86.87;100447.53;5329651;32;35148;-77
2022/11/06 00:22:59;;;;;;;;;;;;;;;11.77;83.52;100442.19;5315102;32;34739;-67
2022/11/06 00:26:03;;;;;;;;;;;;;;;11.26;86.46;100443.47;5329491;32;34965;-68
2022/11/06 00:29:05;;;;;;;;;;;;;;;11.02;85.01;100445.34;5309386;32;43597;-68
2022/11/06 00:32:07;;;;;;;;;;;;;;;11.64;83.88;100442.72;5321845;32;35028;-67
2022/11/06 00:35:09;;;;;;;;;;;;;;;11.89;82.63;100444.34;5316981;32;35394;-68
2022/11/06 00:38:11;;;;;;;;;;;;;;;11.93;83.03;100446.78;5291114;32;34813;-68
2022/11/06 00:41:14;;;;;;;;;;;;;;;11.36;83.39;100440.41;5325486;32;34948;-67
2022/11/06 00:44:15;;;;;;;;;;;;;;;11.24;85.56;100440.91;5311010;32;34929;-67
2022/11/06 00:47:17;;;;;;;;;;;;;;;11.07;85.49;100436.31;5322972;32;35433;-78
2022/11/06 00:50:19;;;;;;;;;;;;;;;10.88;88.37;100442.38;5316577;32;34889;-77
2022/11/06 00:53:21;;;;;;;;;;;;;;;11.51;84.87;100438.03;5300698;33;34968;-78
2022/11/06 00:56:23;;;;;;;;;;;;;;;11.03;85.66;100445.28;5314498;32;35211;-67
2022/11/06 00:59:25;;;;;;;;;;;;;;;11.13;87.15;100448.38;5294487;32;35017;-67
2022/11/06 01:02:26;;;;;;;;;;;;;;;11.10;84.27;100445.88;5323797;32;34832;-76
2022/11/06 01:05:28;;;;;;;;;;;;;;;11.08;88.09;100453.00;5322971;32;35654;-67
2022/11/06 01:08:30;;;;;;;;;;;;;;;11.10;86.80;100448.50;5331159;32;34220;-68
2022/11/06 01:11:33;;;;;;;;;;;;;;;11.12;85.91;100447.50;5296375;32;35134;-68
2022/11/06 01:14:55;;;;;;;;;;;;;;;11.44;84.31;100453.25;5311472;32;36028;-77
2022/11/06 01:17:57;;;;;;;;;;;;;;;11.55;82.85;100451.03;5300093;32;35104;-67
2022/11/06 01:21:01;;;;;;;;;;;;;;;11.83;82.02;100448.09;5312961;32;34672;-68
2022/11/06 01:24:08;;;;;;;;;;;;;;;11.12;85.59;100452.78;5329106;32;35436;-78
2022/11/06 01:27:10;;;;;;;;;;;;;;;11.31;85.97;100452.88;5319766;32;44808;-68
2022/11/06 01:30:27;;;;;;;;;;;;;;;10.98;84.94;100457.75;5321007;32;35372;-67
2022/11/06 01:33:29;;;;;;;;;;;;;;;11.90;83.42;100451.31;5307597;32;35268;-68
2022/11/06 01:36:31;;;;;;;;;;;;;;;10.62;87.08;100456.53;5287532;32;34680;-69
2022/11/06 01:39:32;;;;;;;;;;;;;;;11.50;85.21;100452.12;5323482;32;35606;-77
2022/11/06 01:42:34;;;;;;;;;;;;;;;10.85;87.06;100456.50;5312379;32;35284;-67
2022/11/06 01:45:37;;;;;;;;;;;;;;;11.16;87.09;100448.25;5325608;32;47940;-76
2022/11/06 01:48:39;;;;;;;;;;;;;;;12.02;82.39;100447.28;5301765;32;35438;-77
2022/11/06 01:52:00;;;;;;;;;;;;;;;11.41;82.96;100447.25;5334383;32;34622;-67
2022/11/06 01:55:13;;;;;;;;;;;;;;;11.25;84.89;100452.28;5315106;32;34936;-77
2022/11/06 01:58:16;;;;;;;;;;;;;;;11.43;86.34;100448.91;5296168;32;37027;-68
2022/11/06 02:01:18;;;;;;;;;;;;;;;11.08;84.82;100456.47;5312986;32;34518;-68
2022/11/06 02:04:21;;;;;;;;;;;;;;;10.80;89.33;100458.44;5303963;32;34804;-77
2022/11/06 02:07:23;;;;;;;;;;;;;;;11.58;86.57;100460.56;5313759;32;34701;-77
2022/11/06 02:10:25;;;;;;;;;;;;;;;11.05;86.72;100460.97;5301376;32;35359;-77
2022/11/06 02:13:50;;;;;;;;;;;;;;;11.53;86.33;100458.13;5293064;32;35163;-66
2022/11/06 02:17:30;;;;;;;;;;;;;;;10.84;89.26;100460.91;5293484;32;35069;-67
2022/11/06 02:20:51;;;;;;;;;;;;;;;11.11;88.91;100468.63;5266686;33;35086;-77
2022/11/06 02:24:07;;;;;;;;;;;;;;;11.12;87.45;100468.56;5274530;32;34943;-68
2022/11/06 02:27:10;;;;;;;;;;;;;;;11.12;89.72;100478.22;5303539;33;44756;-68
2022/11/06 02:30:12;;;;;;;;;;;;;;;11.38;84.92;100464.88;5319514;32;35310;-68
2022/11/06 02:33:15;;;;;;;;;;;;;;;11.10;86.99;100477.44;5311662;32;32876;-68
2022/11/06 02:36:18;;;;;;;;;;;;;;;11.46;84.65;100476.84;5297536;32;34997;-77
2022/11/06 02:39:21;;;;;;;;;;;;;;;11.42;85.87;100480.56;5305184;32;34959;-78
2022/11/06 02:42:23;;;;;;;;;;;;;;;10.53;89.37;100494.53;5304346;32;35091;-77
2022/11/06 02:45:24;;;;;;;;;;;;;;;10.56;90.29;100495.28;5315032;32;35567;-68
2022/11/06 02:48:28;;;;;;;;;;;;;;;10.88;88.94;100489.69;5305196;33;34389;-77
2022/11/06 02:51:31;;;;;;;;;;;;;;;11.20;88.07;100491.94;5310919;32;34485;-76
2022/11/06 02:54:33;;;;;;;;;;;;;;;10.69;89.49;100497.44;5315479;32;35400;-68
2022/11/06 02:57:37;;;;;;;;;;;;;;;11.36;89.02;100495.66;5309404;32;43330;-77
2022/11/06 03:00:39;;;;;;;;;;;;;;;11.30;87.34;100498.53;5328202;32;34405;-68
2022/11/06 03:03:44;;;;;;;;;;;;;;;10.92;88.30;100501.81;5304295;32;34595;-69
2022/11/06 03:06:48;;;;;;;;;;;;;;;10.63;88.87;100498.56;5326623;32;35078;-68
2022/11/06 03:09:50;;;;;;;;;;;;;;;10.78;90.64;100508.47;5349374;32;34811;-76
2022/11/06 03:13:00;;;;;;;;;;;;;;;10.60;91.48;100513.56;5333204;32;37969;-67
2022/11/06 03:16:04;;;;;;;;;;;;;;;10.58;90.20;100518.87;5306836;32;34933;-77
2022/11/06 03:19:08;;;;;;;;;;;;;;;11.27;88.40;100511.84;5287081;32;44954;-68
2022/11/06 03:22:10;;;;;;;;;;;;;;;10.90;89.76;100520.31;5298055;32;35346;-77
2022/11/06 03:25:22;;;;;;;;;;;;;;;11.49;87.37;100518.84;5323500;32;35060;-77
2022/11/06 03:28:31;;;;;;;;;;;;;;;10.93;87.27;100517.53;5291478;33;34715;-67
2022/11/06 03:31:34;;;;;;;;;;;;;;;11.59;87.02;100514.91;5313750;32;35444;-67
2022/11/06 03:34:52;;;;;;;;;;;;;;;11.17;87.47;100528.91;5333148;32;44407;-67
2022/11/06 03:37:59;;;;;;;;;;;;;;;11.72;85.48;100528.44;5301077;32;35661;-78
2022/11/06 03:41:06;;;;;;;;;;;;;;;10.81;87.84;100547.78;5323921;32;35364;-77
2022/11/06 03:44:09;;;;;;;;;;;;;;;11.04;90.56;100544.28;5300886;32;46599;-78
2022/11/06 03:47:19;;;;;;;;;;;;;;;11.10;87.97;100537.94;5330067;32;35894;-76
2022/11/06 03:50:23;;;;;;;;;;;;;;;10.87;88.82;100546.69;5314295;32;35176;-66
2022/11/06 03:53:29;;;;;;;;;;;;;;;11.08;89.82;100543.28;5308122;33;35703;-67
2022/11/06 03:56:35;;;;;;;;;;;;;;;11.34;88.79;100542.25;5315980;32;35409;-67
2022/11/06 03:59:43;;;;;;;;;;;;;;;11.51;87.54;100543.34;5314263;32;44498;-67
2022/11/06 04:02:47;;;;;;;;;;;;;;;11.85;85.53;100543.72;5329902;32;35008;-67
2022/11/06 04:05:53;;;;;;;;;;;;;;;12.27;82.91;100542.78;5310586;32;35032;-67
2022/11/06 04:15:41;;;;;;;;;;;;;;;10.85;90.41;100554.66;5301377;32;44493;-77
2022/11/06 04:18:42;;;;;;;;;;;;;;;11.40;86.57;100546.41;5319623;32;34711;-77
2022/11/06 04:21:44;;;;;;;;;;;;;;;11.26;86.83;100538.19;5312600;32;34806;-67
2022/11/06 04:28:24;;;;;;;;;;;;;;;11.64;85.78;100550.66;5314947;32;34756;-67
2022/11/06 04:31:26;;;;;;;;;;;;;;;11.55;86.98;100552.81;5291656;33;35261;-68
2022/11/06 04:34:32;;;;;;;;;;;;;;;11.69;84.73;100539.94;5327027;32;35352;-76
2022/11/06 04:37:43;;;;;;;;;;;;;;;11.08;88.11;100552.94;5297482;32;35461;-78
2022/11/06 04:40:50;;;;;;;;;;;;;;;11.34;86.72;100544.88;5330076;32;44982;-67
2022/11/06 04:43:59;;;;;;;;;;;;;;;11.56;87.50;100547.50;5291151;32;34250;-77
2022/11/06 04:47:01;;;;;;;;;;;;;;;11.71;86.68;100538.09;5294520;32;35549;-68
2022/11/06 04:50:04;;;;;;;;;;;;;;;11.28;86.10;100547.75;5314199;32;35030;-67
2022/11/06 04:53:05;;;;;;;;;;;;;;;11.02;87.80;100553.16;5312088;32;48325;-76
2022/11/06 04:56:11;;;;;;;;;;;;;;;10.92;91.40;100557.06;5310348;32;35443;-68
2022/11/06 04:59:14;;;;;;;;;;;;;;;11.27;86.27;100543.41;5300452;32;34635;-77
2022/11/06 05:02:15;;;;;;;;;;;;;;;10.88;89.43;100558.06;5314160;32;35422;-68
2022/11/06 05:05:17;;;;;;;;;;;;;;;11.43;87.13;100553.31;5320238;32;35020;-67
2022/11/06 05:08:19;;;;;;;;;;;;;;;11.11;87.68;100558.91;5316714;32;35284;-78
2022/11/06 05:11:21;;;;;;;;;;;;;;;10.77;88.68;100564.59;5328853;32;34654;-67
2022/11/06 05:14:23;;;;;;;;;;;;;;;11.06;87.80;100560.00;5301843;32;35401;-68
2022/11/06 05:17:25;;;;;;;;;;;;;;;10.98;86.74;100560.31;5307082;32;34878;-67
2022/11/06 05:20:27;;;;;;;;;;;;;;;11.32;86.85;100557.22;5313455;32;34787;-77
2022/11/06 05:23:28;;;;;;;;;;;;;;;10.69;88.77;100564.03;5327147;32;35640;-77
2022/11/06 05:26:30;;;;;;;;;;;;;;;11.32;85.14;100562.47;5313704;32;36541;-67
2022/11/06 05:29:32;;;;;;;;;;;;;;;11.30;86.75;100563.47;5314806;32;35110;-68
2022/11/06 05:32:34;;;;;;;;;;;;;;;11.39;85.30;100569.22;5328791;32;37645;-67
2022/11/06 05:35:36;;;;;;;;;;;;;;;11.16;85.72;100578.94;5330813;32;46960;-77
2022/11/06 05:38:38;;;;;;;;;;;;;;;11.73;83.29;100575.78;5317478;32;34580;-77
2022/11/06 05:41:39;;;;;;;;;;;;;;;11.22;85.04;100583.97;5312248;32;34864;-77
2022/11/06 05:44:41;;;;;;;;;;;;;;;11.45;83.16;100586.53;5329226;32;35038;-77
2022/11/06 05:47:43;;;;;;;;;;;;;;;11.55;82.28;100589.69;5314751;32;35520;-78
2022/11/06 05:50:45;;;;;;;;;;;;;;;11.38;84.34;100595.59;5313517;32;35353;-67
2022/11/06 05:53:47;;;;;;;;;;;;;;;11.59;83.35;100594.78;5329485;32;35957;-69
2022/11/06 05:56:49;;;;;;;;;;;;;;;11.23;84.77;100601.47;5310863;32;35182;-68
2022/11/06 05:59:50;;;;;;;;;;;;;;;10.98;85.37;100605.00;5328913;32;34280;-67
2022/11/06 06:02:52;;;;;;;;;;;;;;;11.61;83.48;100597.34;5312316;32;34233;-77
2022/11/06 06:05:54;;;;;;;;;;;;;;;11.48;84.10;100602.22;5319475;32;35110;-77
2022/11/06 06:08:56;;;;;;;;;;;;;;;11.53;82.48;100615.22;5311261;32;34993;-77
2022/11/06 06:11:58;;;;;;;;;;;;;;;10.90;87.41;100617.59;5311706;32;34571;-77
2022/11/06 06:15:00;;;;;;;;;;;;;;;11.26;84.31;100622.38;5326425;32;35404;-77
2022/11/06 06:18:02;;;;;;;;;;;;;;;11.01;84.53;100628.59;5295750;32;35182;-67
2022/11/06 06:21:03;;;;;;;;;;;;;;;10.35;89.32;100632.69;5326495;32;34914;-77
2022/11/06 06:24:06;;;;;;;;;;;;;;;11.54;85.11;100630.09;5331750;32;45425;-77
2022/11/06 06:27:07;;;;;;;;;;;;;;;11.55;84.12;100635.28;5330662;32;34338;-68
2022/11/06 06:30:09;;;;;;;;;;;;;;;11.55;83.16;100648.44;5314277;32;35747;-77
2022/11/06 06:33:11;;;;;;;;;;;;;;;10.93;86.08;100650.81;5313259;32;35417;-68
2022/11/06 06:36:13;;;;;;;;;;;;;;;12.17;80.88;100641.59;5325563;32;34633;-67
2022/11/06 06:39:15;;;;;;;;;;;;;;;11.32;84.85;100649.31;5309532;32;34669;-77
2022/11/06 06:42:17;;;;;;;;;;;;;;;11.53;82.91;100654.69;5326468;32;37480;-77
2022/11/06 06:45:18;;;;;;;;;;;;;;;11.65;82.16;100657.69;5312204;32;35072;-67
2022/11/06 06:48:20;;;;;;;;;;;;;;;11.76;81.41;100662.53;5326760;32;35133;-68
2022/11/06 06:51:22;;;;;;;;;;;;;;;11.69;81.43;100660.22;5297661;32;34772;-78
2022/11/06 06:54:25;;;;;;;;;;;;;;;11.61;82.54;100668.41;5310113;32;36163;-77
2022/11/06 06:57:26;;;;;;;;;;;;;;;11.10;85.04;100674.72;5312767;32;35520;-68
2022/11/06 07:00:28;;;;;;;;;;;;;;;11.87;82.53;100670.91;5310723;32;34837;-77
2022/11/06 07:03:30;;;;;;;;;;;;;;;12.02;81.60;100668.56;5332210;32;35381;-68
2022/11/06 07:06:32;;;;;;;;;;;;;;;11.52;81.47;100672.25;5311008;32;34751;-68
2022/11/06 07:09:34;;;;;;;;;;;;;;;11.46;83.16;100688.25;5326235;32;35189;-78
2022/11/06 07:12:36;;;;;;;;;;;;;;;11.56;81.93;100675.62;5313912;32;45272;-67
2022/11/06 07:15:37;;;;;;;;;;;;;;;11.35;82.30;100679.94;5306384;32;35339;-78
2022/11/06 07:18:39;;;;;;;;;;;;;;;11.39;82.30;100679.75;5319712;32;35610;-78
2022/11/06 07:21:41;;;;;;;;;;;;;;;11.23;84.04;100686.50;5313465;32;35524;-69
2022/11/06 07:24:43;;;;;;;;;;;;;;;11.76;81.94;100680.13;5330220;32;34466;-67
2022/11/06 07:27:45;;;;;;;;;;;;;;;11.65;82.22;100691.06;5314679;32;35423;-68
2022/11/06 07:30:47;;;;;;;;;;;;;;;11.37;82.92;100683.38;5328320;32;35761;-78
2022/11/06 07:33:49;;;;;;;;;;;;;;;11.99;81.40;100685.38;5316902;32;35598;-68
2022/11/06 07:36:50;;;;;;;;;;;;;;;12.18;79.97;100690.75;5310920;32;35176;-68
2022/11/06 07:39:52;;;;;;;;;;;;;;;11.41;81.38;100697.28;5327721;32;34881;-77
2022/11/06 07:42:54;;;;;;;;;;;;;;;11.25;84.66;100696.97;5314842;32;34825;-69
2022/11/06 07:46:03;;;;;;;;;;;;;;;11.99;81.58;100695.06;5329181;32;35446;-68
2022/11/06 07:49:05;;;;;;;;;;;;;;;11.97;80.86;100700.34;5318610;32;45080;-68
2022/11/06 07:52:07;;;;;;;;;;;;;;;11.91;79.79;100701.50;5332021;32;34784;-68
2022/11/06 07:55:09;;;;;;;;;;;;;;;12.16;79.83;100697.84;5312951;32;35595;-67
2022/11/06 07:58:11;;;;;;;;;;;;;;;11.50;82.10;100704.81;5313740;32;34376;-67
2022/11/06 08:01:14;;;;;;;;;;;;;;;11.62;82.71;100704.34;5328833;32;34903;-68
2022/11/06 08:04:19;;;;;;;;;;;;;;;12.22;79.26;100697.59;5308089;32;34851;-72
2022/11/06 08:07:21;;;;;;;;;;;;;;;11.88;81.96;100704.22;5320885;32;35413;-70
2022/11/06 08:10:23;;;;;;;;;;;;;;;11.87;80.14;100715.69;5313283;32;35459;-68
2022/11/06 08:13:25;;;;;;;;;;;;;;;12.35;79.10;100695.31;5321718;32;34949;-67
2022/11/06 08:16:27;;;;;;;;;;;;;;;12.52;77.97;100707.81;5282704;32;36295;-70
2022/11/06 08:19:29;;;;;;;;;;;;;;;12.33;78.61;100700.66;5311300;32;35302;-68
2022/11/06 08:22:30;;;;;;;;;;;;;;;12.63;77.63;100697.66;5327851;32;35375;-68
2022/11/06 08:25:33;;;;;;;;;;;;;;;12.46;78.27;100712.41;5313381;32;34735;-67
2022/11/06 08:28:35;;;;;;;;;;;;;;;12.43;76.76;100704.63;5312916;32;37591;-68
2022/11/06 08:31:37;;;;;;;;;;;;;;;11.58;81.73;100711.50;5312489;32;35131;-68
2022/11/06 08:34:41;;;;;;;;;;;;;;;11.78;80.76;100717.75;5321817;32;35493;-70
2022/11/06 08:37:42;;;;;;;;;;;;;;;11.15;84.01;100717.50;5316982;32;34934;-70
2022/11/06 08:40:44;;;;;;;;;;;;;;;11.92;81.49;100720.78;5310537;32;35026;-71
2022/11/06 08:43:53;;;;;;;;;;;;;;;12.19;79.38;100710.91;5319334;32;35842;-70
2022/11/06 08:46:55;;;;;;;;;;;;;;;12.52;77.92;100708.66;5305705;32;33182;-70
2022/11/06 08:49:57;;;;;;;;;;;;;;;11.82;80.48;100717.63;5307554;32;35067;-70
2022/11/06 08:53:03;;;;;;;;;;;;;;;11.83;80.51;100711.44;5314432;32;35572;-67
2022/11/06 08:56:05;;;;;;;;;;;;;;;11.96;80.83;100718.87;5301377;32;34751;-71
2022/11/06 08:59:07;;;;;;;;;;;;;;;11.56;81.55;100718.59;5329433;32;44778;-68
2022/11/06 09:02:10;;;;;;;;;;;;;;;11.96;79.36;100721.50;5313277;32;34710;-70
2022/11/06 09:05:12;;;;;;;;;;;;;;;12.21;78.93;100716.97;5332467;32;35515;-68
2022/11/06 09:08:15;;;;;;;;;;;;;;;12.10;80.55;100713.91;5294412;32;35483;-67
2022/11/06 09:11:16;;;;;;;;;;;;;;;12.62;76.48;100714.38;5325689;32;34992;-68
2022/11/06 09:14:18;;;;;;;;;;;;;;;12.38;77.40;100714.50;5287845;32;929098;-68
2022/11/06 09:17:22;;;;;;;;;;;;;;;12.83;75.82;100710.84;5286569;32;34325;-71
2022/11/06 09:20:24;;;;;;;;;;;;;;;12.93;75.04;100712.16;5318883;32;34898;-71
2022/11/06 09:23:26;;;;;;;;;;;;;;;12.91;74.67;100699.97;5312339;32;35023;-69
2022/11/06 09:26:28;;;;;;;;;;;;;;;12.69;77.02;100695.63;5328400;32;34932;-71
2022/11/06 09:29:30;;;;;;;;;;;;;;;12.54;77.17;100690.97;5313039;32;34667;-68
2022/11/06 09:32:32;;;;;;;;;;;;;;;13.32;74.56;100697.28;5328784;32;34893;-67
2022/11/06 09:35:34;;;;;;;;;;;;;;;14.16;70.52;100699.44;5311235;32;36053;-70
2022/11/06 09:38:35;;;;;;;;;;;;;;;12.74;75.50;100703.31;5296110;32;47434;-68
2022/11/06 09:41:37;;;;;;;;;;;;;;;13.47;73.72;100694.81;5326468;32;35587;-71
2022/11/06 09:44:58;;;;;;;;;;;;;;;14.07;70.47;100691.97;5312611;32;34727;-68
2022/11/06 09:48:04;;;;;;;;;;;;;;;13.65;72.09;100694.87;5329182;32;35079;-68
2022/11/06 09:51:27;;;;;;;;;;;;;;;14.02;71.22;100697.47;5296941;32;45136;-67
2022/11/06 09:55:08;;;;;;;;;;;;;;;13.67;72.44;100698.31;5301533;32;36003;-71
2022/11/06 09:58:11;;;;;;;;;;;;;;;14.37;69.24;100697.56;5234555;33;34646;-72
2022/11/06 10:01:17;;;;;;;;;;;;;;;13.95;71.05;100693.41;5211710;33;35427;-68
2022/11/06 10:04:41;;;;;;;;;;;;;;;14.13;69.42;100691.69;5320764;32;35305;-68
2022/11/06 10:07:43;;;;;;;;;;;;;;;13.73;70.50;100690.97;5318555;32;44559;-70
2022/11/06 10:11:03;;;;;;;;;;;;;;;13.43;71.87;100693.22;5311527;32;35432;-68
2022/11/06 10:14:25;;;;;;;;;;;;;;;13.13;73.39;100689.31;5315123;32;46664;-68
2022/11/06 10:17:45;;;;;;;;;;;;;;;13.82;71.41;100687.00;5268646;32;35004;-67
2022/11/06 10:20:51;;;;;;;;;;;;;;;14.19;69.42;100677.31;5301145;32;35793;-67
2022/11/06 10:23:53;;;;;;;;;;;;;;;13.86;70.33;100682.44;5319197;32;35467;-71
2022/11/06 10:26:55;;;;;;;;;;;;;;;13.99;69.78;100681.78;5311426;32;34898;-70
2022/11/06 10:30:05;;;;;;;;;;;;;;;14.34;69.20;100676.53;5328259;32;34526;-67
2022/11/06 10:33:13;;;;;;;;;;;;;;;13.83;71.12;100678.16;5296980;32;46174;-70
2022/11/06 10:36:22;;;;;;;;;;;;;;;13.71;69.66;100684.00;5308385;32;35003;-68
2022/11/06 10:39:26;;;;;;;;;;;;;;;13.18;72.51;100682.91;5299500;32;34440;-67
2022/11/06 10:42:29;;;;;;;;;;;;;;;13.34;72.46;100677.81;5293386;32;35444;-68
2022/11/06 10:45:39;;;;;;;;;;;;;;;13.77;71.88;100673.16;5330778;32;44775;-68
2022/11/06 10:48:48;;;;;;;;;;;;;;;13.18;73.59;100669.69;5300670;32;35492;-68
2022/11/06 10:51:55;;;;;;;;;;;;;;;13.83;70.94;100675.50;5310844;33;34854;-71
2022/11/06 10:55:16;;;;;;;;;;;;;;;13.42;71.28;100666.91;5315393;32;34820;-67
2022/11/06 10:58:19;;;;;;;;;;;;;;;13.24;73.25;100660.69;5316057;32;34509;-70
2022/11/06 11:01:21;;;;;;;;;;;;;;;13.23;72.29;100657.19;5329647;32;35312;-69
2022/11/06 11:04:23;;;;;;;;;;;;;;;12.72;74.74;100657.69;5299178;32;34466;-68
2022/11/06 11:07:29;;;;;;;;;;;;;;;13.13;74.12;100655.00;5331183;32;34800;-68
2022/11/06 11:10:31;;;;;;;;;;;;;;;13.43;72.18;100655.41;5300293;32;34149;-70
2022/11/06 11:13:33;;;;;;;;;;;;;;;13.95;70.57;100645.84;5325595;32;35375;-70
2022/11/06 11:16:39;;;;;;;;;;;;;;;13.64;71.98;100656.19;5303489;32;44949;-66
2022/11/06 11:19:42;;;;;;;;;;;;;;;13.61;72.28;100648.41;5313340;32;35123;-71
2022/11/06 11:22:44;;;;;;;;;;;;;;;13.24;72.40;100648.34;5332025;32;34952;-69
2022/11/06 11:25:53;;;;;;;;;;;;;;;12.99;75.82;100645.06;5314439;32;34737;-68
2022/11/06 11:28:56;;;;;;;;;;;;;;;12.51;76.56;100656.00;5317964;32;34858;-68
2022/11/06 11:31:58;;;;;;;;;;;;;;;13.13;74.71;100641.81;5299475;32;34928;-67
2022/11/06 11:35:00;;;;;;;;;;;;;;;14.06;70.86;100648.84;5304007;32;35224;-67
2022/11/06 11:38:06;;;;;;;;;;;;;;;14.18;70.05;100635.94;5325228;32;35823;-68
2022/11/06 11:41:08;;;;;;;;;;;;;;;13.28;73.58;100642.00;5315457;32;44942;-72
2022/11/06 11:44:10;;;;;;;;;;;;;;;13.71;72.81;100639.97;5325453;32;37832;-70
2022/11/06 11:47:21;;;;;;;;;;;;;;;13.81;71.69;100637.75;5314899;32;34899;-68
2022/11/06 11:50:32;;;;;;;;;;;;;;;13.61;71.90;100635.22;5327825;32;35224;-70
2022/11/06 11:53:34;;;;;;;;;;;;;;;13.60;72.54;100634.38;5282223;33;34356;-70
2022/11/06 11:56:52;;;;;;;;;;;;;;;12.97;74.71;100637.22;5311197;32;46287;-68
2022/11/06 12:00:14;;;;;;;;;;;;;;;13.25;74.97;100633.34;5329702;32;45052;-70
2022/11/06 12:03:15;;;;;;;;;;;;;;;13.57;73.49;100631.84;5304492;32;35271;-69
2022/11/06 12:06:17;;;;;;;;;;;;;;;13.90;71.96;100628.50;5314884;32;35138;-68
2022/11/06 12:09:19;;;;;;;;;;;;;;;15.05;67.48;100620.84;5302216;32;35392;-70
2022/11/06 12:12:22;;;;;;;;;;;;;;;15.23;66.76;100626.94;5295163;33;34842;-72
2022/11/06 12:15:26;;;;;;;;;;;;;;;15.00;66.08;100629.03;5316071;32;34730;-70
2022/11/06 12:18:35;;;;;;;;;;;;;;;15.49;64.76;100622.84;5282992;32;35424;-68
2022/11/06 12:21:36;;;;;;;;;;;;;;;15.06;64.09;100623.41;5313932;32;47278;-71
2022/11/06 12:24:56;;;;;;;;;;;;;;;15.21;64.74;100626.19;5299351;32;35095;-68
2022/11/06 12:27:58;;;;;;;;;;;;;;;14.81;66.62;100628.28;5299943;33;35457;-70
2022/11/06 12:31:04;;;;;;;;;;;;;;;14.78;65.82;100631.97;5333572;32;34897;-67
2022/11/06 12:34:18;;;;;;;;;;;;;;;14.94;65.35;100626.75;5313944;32;45232;-70
2022/11/06 12:37:23;;;;;;;;;;;;;;;15.59;62.89;100619.63;5327556;32;36302;-68
2022/11/06 12:40:29;;;;;;;;;;;;;;;13.79;67.01;100631.69;5309722;32;34994;-68
2022/11/06 12:43:39;;;;;;;;;;;;;;;13.88;69.75;100625.94;5328069;32;35390;-68
2022/11/06 12:46:47;;;;;;;;;;;;;;;14.72;66.82;100628.78;5320358;32;44973;-69
2022/11/06 12:49:55;;;;;;;;;;;;;;;15.46;64.01;100618.59;5299071;32;35048;-67
2022/11/06 12:53:04;;;;;;;;;;;;;;;15.15;63.34;100632.66;5317098;32;35083;-68
2022/11/06 12:56:07;;;;;;;;;;;;;;;15.20;63.44;100629.75;5293713;32;45956;-69
2022/11/06 12:59:18;;;;;;;;;;;;;;;14.74;64.69;100633.06;5330759;32;35786;-67
2022/11/06 13:02:19;;;;;;;;;;;;;;;14.48;66.63;100631.75;5315353;32;34857;-71
2022/11/06 13:05:27;;;;;;;;;;;;;;;14.32;66.36;100630.81;5321457;32;35058;-71
2022/11/06 13:08:48;;;;;;;;;;;;;;;14.92;63.07;100640.97;5331027;32;34653;-70
2022/11/06 13:11:49;;;;;;;;;;;;;;;15.26;62.14;100634.72;5312661;32;35453;-68
2022/11/06 13:15:10;;;;;;;;;;;;;;;14.51;65.09;100639.56;5331254;32;34210;-70
2022/11/06 13:18:14;;;;;;;;;;;;;;;15.34;62.37;100637.81;5300604;32;46777;-71
2022/11/06 13:21:22;;;;;;;;;;;;;;;15.46;61.38;100642.44;5299824;32;34855;-67
2022/11/06 13:24:27;;;;;;;;;;;;;;;15.89;61.21;100629.44;5329677;32;35644;-68
2022/11/06 13:27:32;;;;;;;;;;;;;;;15.65;59.68;100626.41;5314449;32;34526;-70
2022/11/06 13:30:34;;;;;;;;;;;;;;;14.90;62.52;100638.41;5329497;32;34835;-70
2022/11/06 13:33:37;;;;;;;;;;;;;;;14.74;63.44;100640.13;5298719;32;43361;-68
2022/11/06 13:36:39;;;;;;;;;;;;;;;14.31;64.73;100634.41;5319861;32;35370;-68
2022/11/06 13:39:41;;;;;;;;;;;;;;;13.95;65.54;100631.78;5303250;32;35603;-68
2022/11/06 13:42:44;;;;;;;;;;;;;;;13.74;67.53;100633.69;5313025;32;34594;-69
2022/11/06 13:46:04;;;;;;;;;;;;;;;14.87;64.20;100633.25;5315277;32;34972;-69
2022/11/06 13:49:18;;;;;;;;;;;;;;;14.47;64.95;100619.47;5299795;32;47153;-68
2022/11/06 13:52:26;;;;;;;;;;;;;;;14.59;64.94;100629.44;5329248;32;35101;-69
2022/11/06 13:55:40;;;;;;;;;;;;;;;15.40;62.07;100632.19;5313729;32;35263;-68
2022/11/06 13:58:57;;;;;;;;;;;;;;;14.89;63.40;100628.75;5300054;32;45552;-69
2022/11/06 14:02:02;;;;;;;;;;;;;;;15.00;64.15;100621.09;5330036;32;36216;-71
2022/11/06 14:05:04;;;;;;;;;;;;;;;14.83;64.94;100610.56;5317375;32;35826;-69
2022/11/06 14:08:06;;;;;;;;;;;;;;;15.41;62.65;100608.25;5329733;32;45522;-71
2022/11/06 14:11:11;;;;;;;;;;;;;;;14.88;62.99;100612.03;5312512;32;35253;-67
2022/11/06 14:14:22;;;;;;;;;;;;;;;15.11;62.78;100605.47;5315135;32;35385;-70
2022/11/06 14:17:24;;;;;;;;;;;;;;;15.34;61.90;100606.03;5306204;32;34757;-68
2022/11/06 14:20:34;;;;;;;;;;;;;;;16.08;59.83;100595.63;5313153;32;34750;-68
2022/11/06 14:23:36;;;;;;;;;;;;;;;15.87;59.80;100607.47;5334139;32;45670;-68
2022/11/06 14:26:45;;;;;;;;;;;;;;;14.58;63.72;100609.22;5318213;32;34615;-69
2022/11/06 14:29:54;;;;;;;;;;;;;;;14.46;65.21;100607.19;5311930;32;35379;-71
2022/11/06 14:32:58;;;;;;;;;;;;;;;14.78;64.35;100600.22;5332910;32;34909;-67
2022/11/06 14:36:08;;;;;;;;;;;;;;;15.00;63.88;100602.56;5301547;32;32422;-68
2022/11/06 14:39:09;;;;;;;;;;;;;;;14.48;65.27;100601.81;5335985;32;44791;-69
2022/11/06 14:42:11;;;;;;;;;;;;;;;14.75;65.17;100602.16;5304327;32;35039;-71
2022/11/06 14:45:13;;;;;;;;;;;;;;;15.43;62.82;100605.50;5324708;32;34838;-68
2022/11/06 14:48:23;;;;;;;;;;;;;;;15.16;63.16;100603.44;5306226;32;34566;-70
2022/11/06 14:51:27;;;;;;;;;;;;;;;14.95;63.68;100603.78;5318491;32;35052;-70
2022/11/06 14:54:28;;;;;;;;;;;;;;;15.33;62.99;100609.63;5319890;32;36885;-71
2022/11/06 14:57:44;;;;;;;;;;;;;;;14.91;64.94;100611.00;5302125;32;34836;-72
2022/11/06 15:00:46;;;;;;;;;;;;;;;15.52;62.01;100599.72;5320312;32;35541;-71
2022/11/06 15:03:54;;;;;;;;;;;;;;;14.80;64.60;100613.34;5308280;32;35620;-69
2022/11/06 15:07:00;;;;;;;;;;;;;;;14.86;64.45;100621.81;5323592;32;35360;-69
2022/11/06 15:10:02;;;;;;;;;;;;;;;15.03;64.34;100618.28;5317330;32;34948;-70
2022/11/06 15:13:04;;;;;;;;;;;;;;;15.23;63.65;100619.00;5305596;32;34986;-68
2022/11/06 15:16:09;;;;;;;;;;;;;;;15.52;62.51;100623.56;5315212;32;48313;-68
2022/11/06 15:19:12;;;;;;;;;;;;;;;15.57;62.26;100618.84;5298176;32;35329;-70
2022/11/06 15:22:18;;;;;;;;;;;;;;;15.40;63.13;100632.19;5333497;32;35367;-69
2022/11/06 15:25:23;;;;;;;;;;;;;;;15.38;63.49;100634.03;5301189;32;35117;-69
2022/11/06 15:28:26;;;;;;;;;;;;;;;15.26;63.61;100630.25;5317794;32;35548;-70
2022/11/06 15:31:28;;;;;;;;;;;;;;;15.53;63.24;100632.34;5333935;32;35133;-72
2022/11/06 15:34:37;;;;;;;;;;;;;;;15.15;64.00;100627.37;5299683;32;34561;-68
2022/11/06 15:37:38;;;;;;;;;;;;;;;15.15;65.32;100632.66;5308569;33;45165;-70
2022/11/06 15:40:40;;;;;;;;;;;;;;;15.11;65.80;100631.09;5306717;32;35016;-69
2022/11/06 15:43:43;;;;;;;;;;;;;;;15.20;65.14;100627.09;5329185;32;34974;-72
2022/11/06 15:46:51;;;;;;;;;;;;;;;15.40;64.66;100622.44;5303494;32;34957;-70
2022/11/06 15:50:05;;;;;;;;;;;;;;;14.87;66.72;100635.91;5300352;32;34672;-71
2022/11/06 15:53:14;;;;;;;;;;;;;;;15.22;66.32;100628.75;5331481;32;47592;-69
2022/11/06 15:56:17;;;;;;;;;;;;;;;15.68;64.22;100629.72;5295840;32;34958;-72
2022/11/06 15:59:19;;;;;;;;;;;;;;;15.68;64.24;100626.22;5316649;32;36411;-70